Williston, ND

5:47 PM CDT on September 01, 2014 (GMT -0500)
Sloulin International | Change Station
CLOSE
Current Station
Airport
Location: Williston,
Elevation: 1906 ft
Nearby Weather Stations

Elev 1906 ft 48.17 °N, 103.64 °W | Updated 55 minutes ago

Scattered Clouds
Scattered Clouds
69 °F
Feels Like 69 °F
N
9
Wind Variable Wind from NW

Today
High -- | Low -- °F
--% Chance of Precip.
Yesterday
High -- | Low -- °F
Precip. -- in
7:12 AM 8:35 PM
Waxing Crescent, 45% visible
Pressure 29.81 in
Visibility 10.0 miles
Clouds Few 9000 ft
Scattered Clouds 12000 ft
Dew Point 41 °F
Humidity 36%
Rainfall 0.00 in
Snow Depth Not available.
UV 3 out of 12
Pollen 8.70 out of 12
Air Quality Not available.
Flu Activity Not available.
METAR KISN 012152Z AUTO 32008KT 10SM FEW090 SCT120 21/05 A2982 RMK AO2 SLP095 T02060050

More Conditions Fewer Conditions

Pressure 29.81 in
Visibility 10.0 miles
Clouds Few 9000 ft
Scattered Clouds 12000 ft
Dew Point 41 °F
Humidity 36%
Rainfall 0.00 in
Snow Depth Not available.
UV 3 out of 12
Pollen 8.70 out of 12
Air Quality Not available.
Flu Activity Not available.
METAR KISN 012152Z AUTO 32008KT 10SM FEW090 SCT120 21/05 A2982 RMK AO2 SLP095 T02060050

More Conditions Fewer Conditions

10-Day Weather Forecast

Almanac

Astronomy

Sep. 01, 2014 Rise Set
Actual Time 7:12 AM CDT 8:35 PM CDT
Civil Twilight 6:40 AM CDT 9:07 PM CDT
Nautical Twilight 6:00 AM CDT 9:46 PM CDT
Astronomical Twilight 5:18 AM CDT 10:28 PM CDT
Moon 2:31 PM CDT No Moon Set
Length of Visible Light 14h 27m
Length of Day
13h 23m
Tomorrow will be 3m 23s shorter.
Waxing Crescent, 45% of the Moon is Illuminated
Today
Waxing Crescent
Sep 2
First Quarter
Sep 8
Full
Sep 15
Last Quarter
Sep 24
New

Today's Extremes

State Highs State Lows

Community

WunderPhotos

Upload Photos

1,749,427 photos uploaded!

Nearby

Snow Depth

Station Depth Elevation
No new snow has been reported.

Earthquake Activity

City Distance Mag. Time & Date
No recent earthquake activity has been reported nearby.
Minimum magnitude displayed is 2.5.

Coastal Water Temperatures

Place Temperature
No Stations Reporting

Nearby Weather Stations